createdAt,value
2018-06-08T00:00:07.674Z,22.15
2018-06-08T00:01:07.391Z,22.17
2018-06-08T00:02:07.662Z,22.04
2018-06-08T00:03:07.451Z,21.96
2018-06-08T00:04:07.735Z,22
2018-06-08T00:05:07.247Z,22.02
2018-06-08T00:06:07.525Z,21.75
2018-06-08T00:07:07.810Z,21.76
2018-06-08T00:08:07.829Z,21.75
2018-06-08T00:09:07.860Z,21.85
2018-06-08T00:10:07.942Z,21.95
2018-06-08T00:11:07.652Z,21.96
2018-06-08T00:12:07.933Z,21.98
2018-06-08T00:13:07.961Z,21.93
2018-06-08T00:14:07.728Z,21.83
2018-06-08T00:15:07.749Z,21.93
2018-06-08T00:16:07.525Z,21.8
2018-06-08T00:17:07.802Z,21.92
2018-06-08T00:18:07.831Z,21.85
2018-06-08T00:19:08.108Z,21.7
2018-06-08T00:20:07.886Z,21.77
2018-06-08T00:21:07.906Z,21.79
2018-06-08T00:22:08.185Z,21.91
2018-06-08T00:23:08.215Z,21.88
2018-06-08T00:24:08.236Z,21.83
2018-06-08T00:25:08.156Z,21.89
2018-06-08T00:26:08.290Z,21.96
2018-06-08T00:27:08.317Z,21.93
2018-06-08T00:28:08.083Z,22.02
2018-06-08T00:29:08.362Z,21.98
2018-06-08T00:30:07.878Z,22
2018-06-08T00:31:07.907Z,21.99
2018-06-08T00:32:08.425Z,22.06
2018-06-08T00:33:07.962Z,22.11
2018-06-08T00:34:08.481Z,22.14
2018-06-08T00:35:08.500Z,22.11
2018-06-08T00:36:08.272Z,22.11
2018-06-08T00:37:08.297Z,22.1
2018-06-08T00:38:08.070Z,22.11
2018-06-08T00:39:08.364Z,22.13
2018-06-08T00:40:08.690Z,22.14
2018-06-08T00:41:08.414Z,22.14
2018-06-08T00:42:08.691Z,22.14
2018-06-08T00:43:08.487Z,22.22
2018-06-08T00:44:08.492Z,22.2
2018-06-08T00:45:08.623Z,22.23
2018-06-08T00:46:08.797Z,22.15
2018-06-08T00:47:08.826Z,22
2018-06-08T00:48:08.593Z,22.04
2018-06-08T00:49:08.874Z,22
2018-06-08T00:50:08.916Z,22.06
2018-06-08T00:51:08.418Z,21.98
2018-06-08T00:52:08.698Z,21.99
2018-06-08T00:53:08.725Z,21.8
2018-06-08T00:54:08.748Z,21.79
2018-06-08T00:55:09.083Z,21.85
2018-06-08T00:56:09.072Z,21.82
2018-06-08T00:57:09.078Z,21.82
2018-06-08T00:58:08.857Z,21.82
2018-06-08T00:59:09.140Z,21.82
2018-06-08T01:00:09.155Z,21.83
2018-06-08T01:01:08.926Z,21.93
2018-06-08T01:02:08.951Z,21.92
2018-06-08T01:03:09.247Z,21.83
2018-06-08T01:04:09.251Z,21.8
2018-06-08T01:05:08.772Z,21.79
2018-06-08T01:06:09.054Z,21.8
2018-06-08T01:07:09.080Z,21.8
2018-06-08T01:08:09.361Z,21.8
2018-06-08T01:09:09.130Z,21.82
2018-06-08T01:10:09.203Z,21.83
2018-06-08T01:11:09.431Z,21.85
2018-06-08T01:12:08.950Z,21.83
2018-06-08T01:13:09.231Z,21.79
2018-06-08T01:14:09.510Z,21.83
2018-06-08T01:15:09.280Z,21.88
2018-06-08T01:16:09.306Z,21.82
2018-06-08T01:17:09.586Z,21.83
2018-06-08T01:18:09.357Z,21.93
2018-06-08T01:19:09.383Z,21.95
2018-06-08T01:20:09.156Z,21.93
2018-06-08T01:21:09.436Z,21.82
2018-06-08T01:22:09.737Z,21.83
2018-06-08T01:23:09.487Z,21.82
2018-06-08T01:24:09.770Z,21.8
2018-06-08T01:25:09.592Z,21.66
2018-06-08T01:26:09.309Z,21.64
2018-06-08T01:27:09.839Z,21.67
2018-06-08T01:28:09.867Z,21.73
2018-06-08T01:29:09.890Z,21.7
2018-06-08T01:30:09.665Z,21.67
2018-06-08T01:31:09.699Z,21.66
2018-06-08T01:32:09.712Z,21.7
2018-06-08T01:33:09.736Z,21.72
2018-06-08T01:34:10.036Z,21.72
2018-06-08T01:35:09.792Z,21.69
2018-06-08T01:36:09.809Z,21.75
2018-06-08T01:37:09.841Z,21.76
2018-06-08T01:38:10.119Z,21.75
2018-06-08T01:39:09.885Z,21.62
2018-06-08T01:40:09.966Z,21.64
2018-06-08T01:41:09.942Z,21.64
2018-06-08T01:42:10.229Z,21.51
2018-06-08T01:43:09.994Z,21.46
2018-06-08T01:44:10.018Z,21.4
2018-06-08T01:45:10.307Z,21.39
2018-06-08T01:46:10.316Z,21.29
2018-06-08T01:47:10.089Z,21.2
2018-06-08T01:48:10.117Z,21.21
2018-06-08T01:49:10.143Z,21.05
2018-06-08T01:50:10.420Z,20.88
2018-06-08T01:51:10.190Z,20.77
2018-06-08T01:52:10.471Z,20.78
2018-06-08T01:53:10.240Z,20.85
2018-06-08T01:54:10.267Z,20.8
2018-06-08T01:55:10.085Z,20.77
2018-06-08T01:56:10.053Z,20.63
2018-06-08T01:57:10.329Z,20.55
2018-06-08T01:58:10.113Z,20.43
2018-06-08T01:59:10.379Z,20.31
2018-06-08T02:00:10.703Z,20.24
2018-06-08T02:01:10.680Z,20.11
2018-06-08T02:02:10.452Z,20.1
2018-06-08T02:03:10.226Z,19.86
2018-06-08T02:04:10.772Z,19.92
2018-06-08T02:05:10.793Z,19.92
2018-06-08T02:06:10.564Z,19.92
2018-06-08T02:07:10.836Z,19.96
2018-06-08T02:08:10.861Z,20.04
2018-06-08T02:09:10.628Z,20.22
2018-06-08T02:10:10.964Z,20.28
2018-06-08T02:11:10.939Z,20.11
2018-06-08T02:12:10.962Z,20.22
2018-06-08T02:13:10.981Z,20.04
2018-06-08T02:14:11.007Z,20.21
2018-06-08T02:15:10.525Z,20.24
2018-06-08T02:16:11.058Z,20.31
2018-06-08T02:17:11.084Z,20.32
2018-06-08T02:18:10.859Z,20.29
2018-06-08T02:19:11.126Z,20.31
2018-06-08T02:20:10.951Z,20.18
2018-06-08T02:21:11.177Z,20.19
2018-06-08T02:22:10.953Z,20.22
2018-06-08T02:23:10.955Z,20.25
2018-06-08T02:24:10.982Z,20.21
2018-06-08T02:25:11.251Z,20.21
2018-06-08T02:26:11.275Z,20.24
2018-06-08T02:27:11.326Z,20.24
2018-06-08T02:28:11.096Z,20.31
2018-06-08T02:29:11.371Z,20.24
2018-06-08T02:30:11.412Z,20.25
2018-06-08T02:31:11.424Z,20.21
2018-06-08T02:32:11.447Z,20.1
2018-06-08T02:33:11.472Z,20.16
2018-06-08T02:34:11.497Z,20.09
2018-06-08T02:35:11.567Z,20.06
2018-06-08T02:36:11.546Z,20.07
2018-06-08T02:37:11.317Z,20.06
2018-06-08T02:38:11.595Z,20.18
2018-06-08T02:39:11.611Z,20.29
2018-06-08T02:40:11.664Z,20.36
2018-06-08T02:41:11.655Z,20.32
2018-06-08T02:42:11.690Z,20.31
2018-06-08T02:43:11.453Z,20.24
2018-06-08T02:44:11.734Z,20.37
2018-06-08T02:45:11.521Z,20.32
2018-06-08T02:46:11.525Z,20.36
2018-06-08T02:47:11.811Z,20.22
2018-06-08T02:48:11.576Z,20.34
2018-06-08T02:49:11.597Z,20.34
2018-06-08T02:50:11.681Z,20.32
2018-06-08T02:51:11.911Z,20.34
2018-06-08T02:52:11.932Z,20.28
2018-06-08T02:53:11.961Z,20.34
2018-06-08T02:54:11.732Z,20.37
2018-06-08T02:55:12.013Z,20.37
2018-06-08T02:56:11.770Z,20.37
2018-06-08T02:57:12.056Z,20.51
2018-06-08T02:58:12.077Z,20.41
2018-06-08T02:59:12.099Z,20.36
2018-06-08T03:00:12.150Z,20.32
2018-06-08T03:01:12.155Z,20.31
2018-06-08T03:02:12.182Z,20.21
2018-06-08T03:03:12.199Z,20.18
2018-06-08T03:04:12.240Z,20.31
2018-06-08T03:05:12.302Z,20.18
2018-06-08T03:06:12.040Z,20.32
2018-06-08T03:07:12.300Z,20.32
2018-06-08T03:08:12.321Z,20.28
2018-06-08T03:09:12.349Z,20.24
2018-06-08T03:10:12.450Z,20.32
2018-06-08T03:11:12.136Z,20.28
2018-06-08T03:12:12.647Z,20.24
2018-06-08T03:13:12.452Z,20.25
2018-06-08T03:14:12.482Z,20.24
2018-06-08T03:15:12.785Z,20.21
2018-06-08T03:16:12.511Z,20.18
2018-06-08T03:17:12.535Z,20.11
2018-06-08T03:18:12.303Z,20.06
2018-06-08T03:19:12.349Z,20.04
2018-06-08T03:20:12.352Z,19.88
2018-06-08T03:21:12.382Z,19.94
2018-06-08T03:22:12.656Z,19.77
2018-06-08T03:23:12.678Z,19.89
2018-06-08T03:24:12.214Z,19.89
2018-06-08T03:25:12.729Z,20.07
2018-06-08T03:26:12.489Z,20.19
2018-06-08T03:27:12.768Z,20.36
2018-06-08T03:28:12.536Z,20.31
2018-06-08T03:29:12.814Z,20.36
2018-06-08T03:30:12.918Z,20.29
2018-06-08T03:31:12.879Z,20.32
2018-06-08T03:32:12.386Z,20.36
2018-06-08T03:33:12.915Z,20.36
2018-06-08T03:34:12.946Z,20.43
2018-06-08T03:35:12.964Z,20.41
2018-06-08T03:36:12.737Z,20.44
2018-06-08T03:37:12.757Z,20.52
2018-06-08T03:38:13.042Z,20.58
2018-06-08T03:39:12.806Z,20.59
2018-06-08T03:40:13.084Z,20.56
2018-06-08T03:41:13.106Z,20.56
2018-06-08T03:42:12.880Z,20.59
2018-06-08T03:43:13.152Z,20.56
2018-06-08T03:44:12.928Z,20.59
2018-06-08T03:45:13.243Z,20.55
2018-06-08T03:46:12.976Z,20.7
2018-06-08T03:47:13.253Z,20.67
2018-06-08T03:48:13.273Z,20.75
2018-06-08T03:49:13.044Z,20.82
2018-06-08T03:50:13.316Z,20.81
2018-06-08T03:51:13.113Z,20.8
2018-06-08T03:52:13.126Z,20.77
2018-06-08T03:53:13.158Z,20.87
2018-06-08T03:54:13.176Z,20.85
2018-06-08T03:55:13.452Z,20.74
2018-06-08T03:56:13.483Z,20.93
2018-06-08T03:57:13.497Z,20.96
2018-06-08T03:58:13.540Z,20.99
2018-06-08T03:59:13.544Z,20.96
2018-06-08T04:00:13.624Z,20.96
2018-06-08T04:01:13.595Z,20.93
2018-06-08T04:02:13.363Z,21.02
2018-06-08T04:03:13.656Z,21.02
2018-06-08T04:04:13.412Z,21.05
2018-06-08T04:05:13.687Z,21.03
2018-06-08T04:06:13.714Z,21.15
2018-06-08T04:07:13.489Z,21.12
2018-06-08T04:08:13.507Z,21.12
2018-06-08T04:09:13.795Z,21.17
2018-06-08T04:10:13.564Z,21.15
2018-06-08T04:11:13.592Z,21.21
2018-06-08T04:12:13.864Z,21.14
2018-06-08T04:13:13.903Z,21.2
2018-06-08T04:14:13.916Z,21.2
2018-06-08T04:15:13.986Z,21.17
2018-06-08T04:16:13.968Z,21.14
2018-06-08T04:17:13.734Z,21.11
2018-06-08T04:18:14.011Z,21.12
2018-06-08T04:19:14.038Z,21.05
2018-06-08T04:20:14.063Z,21.03
2018-06-08T04:21:14.088Z,21.18
2018-06-08T04:22:13.858Z,21.12
2018-06-08T04:23:14.142Z,21.09
2018-06-08T04:24:14.165Z,21.05
2018-06-08T04:25:14.187Z,21.07
2018-06-08T04:26:13.959Z,21.06
2018-06-08T04:27:14.238Z,21.15
2018-06-08T04:28:14.257Z,21.03
2018-06-08T04:29:14.285Z,21
2018-06-08T04:30:14.111Z,21.03
2018-06-08T04:31:13.824Z,21.12
2018-06-08T04:32:14.356Z,21
2018-06-08T04:33:14.383Z,21.06
2018-06-08T04:34:14.403Z,21.03
2018-06-08T04:35:14.438Z,21.06
2018-06-08T04:36:14.449Z,21.03
2018-06-08T04:37:14.490Z,21.14
2018-06-08T04:38:14.505Z,21.14
2018-06-08T04:39:14.532Z,21.22
2018-06-08T04:40:14.575Z,21.24
2018-06-08T04:41:14.327Z,21.29
2018-06-08T04:42:14.610Z,21.22
2018-06-08T04:43:14.634Z,21.35
2018-06-08T04:44:14.400Z,21.29
2018-06-08T04:45:14.746Z,21.25
2018-06-08T04:46:14.446Z,21.24
2018-06-08T04:47:14.737Z,21.36
2018-06-08T04:48:14.559Z,21.43
2018-06-08T04:49:14.784Z,21.39
2018-06-08T04:50:14.561Z,21.48
2018-06-08T04:51:14.572Z,21.48
2018-06-08T04:52:14.858Z,21.48
2018-06-08T04:53:14.627Z,21.5
2018-06-08T04:54:14.912Z,21.58
2018-06-08T04:55:14.675Z,21.61
2018-06-08T04:56:14.950Z,21.67
2018-06-08T04:57:14.977Z,21.66
2018-06-08T04:58:14.792Z,21.75
2018-06-08T04:59:15.018Z,21.73
2018-06-08T05:00:15.103Z,21.72
2018-06-08T05:01:15.089Z,21.69
2018-06-08T05:02:15.108Z,21.73
2018-06-08T05:03:14.870Z,21.72
2018-06-08T05:04:15.147Z,21.85
2018-06-08T05:05:15.229Z,21.76
2018-06-08T05:06:14.948Z,21.89
2018-06-08T05:07:14.975Z,22.07
2018-06-08T05:08:15.250Z,22.17
2018-06-08T05:09:15.092Z,22.14
2018-06-08T05:10:15.296Z,22.18
2018-06-08T05:11:15.324Z,22.17
2018-06-08T05:12:15.353Z,22.2
2018-06-08T05:13:15.376Z,22.22
2018-06-08T05:14:15.442Z,22.33
2018-06-08T05:15:15.427Z,22.39
2018-06-08T05:16:15.454Z,22.33
2018-06-08T05:17:15.479Z,22.44
2018-06-08T05:18:15.507Z,22.53
2018-06-08T05:19:15.274Z,22.44
2018-06-08T05:20:15.715Z,22.54
2018-06-08T05:21:15.079Z,22.62
2018-06-08T05:22:15.356Z,22.69
2018-06-08T05:23:15.633Z,22.8
2018-06-08T05:24:15.404Z,22.78
2018-06-08T05:25:15.433Z,22.78
2018-06-08T05:26:15.833Z,22.76
2018-06-08T05:27:15.743Z,22.76
2018-06-08T05:28:15.747Z,22.78
2018-06-08T05:29:15.770Z,22.75
2018-06-08T05:30:15.802Z,22.76
2018-06-08T05:31:15.571Z,22.85
2018-06-08T05:32:15.857Z,22.85
2018-06-08T05:33:15.642Z,22.94
2018-06-08T05:34:15.901Z,23
2018-06-08T05:35:15.981Z,23.1
2018-06-08T05:36:16.173Z,23.12
2018-06-08T05:37:15.813Z,23.2
2018-06-08T05:38:15.499Z,23.06
2018-06-08T05:39:16.020Z,22.81
2018-06-08T05:40:15.814Z,22.88
2018-06-08T05:41:16.100Z,22.99
2018-06-08T05:42:16.133Z,23.02
2018-06-08T05:43:15.892Z,22.94
2018-06-08T05:44:16.215Z,22.96
2018-06-08T05:45:16.212Z,23.02
2018-06-08T05:46:16.223Z,22.98
2018-06-08T05:47:16.248Z,22.94
2018-06-08T05:48:16.539Z,22.94
2018-06-08T05:49:16.304Z,23.03
2018-06-08T05:50:16.125Z,23.05
2018-06-08T05:51:16.352Z,23.17
2018-06-08T05:52:16.125Z,23.24
2018-06-08T05:53:16.149Z,23.21
2018-06-08T05:54:16.239Z,23.12
2018-06-08T05:55:16.505Z,22.98
2018-06-08T05:56:16.501Z,23.02
2018-06-08T05:57:16.257Z,23
2018-06-08T05:58:16.281Z,22.98
2018-06-08T05:59:16.305Z,22.99
2018-06-08T06:00:16.335Z,23
2018-06-08T06:01:16.690Z,23.05
2018-06-08T06:02:16.639Z,23.03
2018-06-08T06:03:16.667Z,23.09
2018-06-08T06:04:16.696Z,23.09
2018-06-08T06:05:16.516Z,23.03
2018-06-08T06:06:16.741Z,23.06
2018-06-08T06:07:16.771Z,23.09
2018-06-08T06:08:16.888Z,23.13
2018-06-08T06:09:16.565Z,23.21
2018-06-08T06:10:17.074Z,23.24
2018-06-08T06:11:16.623Z,23.24
2018-06-08T06:12:16.893Z,23.27
2018-06-08T06:13:16.920Z,23.34
2018-06-08T06:14:16.439Z,23.36
2018-06-08T06:15:16.460Z,23.43
2018-06-08T06:16:16.734Z,23.34
2018-06-08T06:17:16.759Z,23.36
2018-06-08T06:18:16.787Z,23.28
2018-06-08T06:19:17.070Z,23.4
2018-06-08T06:20:16.887Z,23.48
2018-06-08T06:21:16.897Z,23.55
2018-06-08T06:22:17.148Z,23.4
2018-06-08T06:23:16.922Z,23.32
2018-06-08T06:24:16.943Z,23.48
2018-06-08T06:25:17.224Z,23.59
2018-06-08T06:26:17.243Z,23.54
2018-06-08T06:27:17.009Z,23.5
2018-06-08T06:28:16.786Z,23.55
2018-06-08T06:29:16.812Z,23.59
2018-06-08T06:30:17.089Z,23.55
2018-06-08T06:31:17.364Z,23.69
2018-06-08T06:32:17.483Z,23.73
2018-06-08T06:33:17.414Z,23.87
2018-06-08T06:34:17.461Z,23.81
2018-06-08T06:35:17.544Z,23.91
2018-06-08T06:36:17.517Z,23.93
2018-06-08T06:37:17.036Z,23.96
2018-06-08T06:38:17.321Z,23.88
2018-06-08T06:39:17.598Z,23.83
2018-06-08T06:40:17.632Z,23.86
2018-06-08T06:41:17.652Z,23.91
2018-06-08T06:42:17.678Z,23.84
2018-06-08T06:43:17.453Z,24.03
2018-06-08T06:44:17.726Z,24.14
2018-06-08T06:45:17.758Z,23.93
2018-06-08T06:46:17.777Z,23.96
2018-06-08T06:47:17.562Z,24.02
2018-06-08T06:48:17.830Z,24.14
2018-06-08T06:49:17.858Z,24.16
2018-06-08T06:50:17.680Z,24.33
2018-06-08T06:51:17.662Z,24.33
2018-06-08T06:52:17.686Z,24.4
2018-06-08T06:53:17.827Z,24.5
2018-06-08T06:54:17.750Z,24.61
2018-06-08T06:55:18.012Z,24.58
2018-06-08T06:56:17.787Z,24.63
2018-06-08T06:57:17.812Z,24.74
2018-06-08T06:58:18.091Z,24.76
2018-06-08T06:59:18.122Z,24.8
2018-06-08T07:00:18.150Z,25.06
2018-06-08T07:01:18.175Z,25.03
2018-06-08T07:02:17.950Z,25.07
2018-06-08T07:03:18.231Z,25.18
2018-06-08T07:04:18.255Z,25.21
2018-06-08T07:05:18.087Z,25.23
2018-06-08T07:06:18.060Z,25.17
2018-06-08T07:07:18.089Z,25.1
2018-06-08T07:08:18.395Z,25.26
2018-06-08T07:09:18.391Z,25.38
2018-06-08T07:10:18.018Z,25.38
2018-06-08T07:11:18.448Z,25.38
2018-06-08T07:12:18.224Z,25.35
2018-06-08T07:13:18.512Z,25.36
2018-06-08T07:14:18.289Z,25.25
2018-06-08T07:15:18.561Z,25.22
2018-06-08T07:16:18.334Z,25.29
2018-06-08T07:17:18.615Z,25.41
2018-06-08T07:18:18.386Z,25.36
2018-06-08T07:19:18.674Z,25.4
2018-06-08T07:20:18.744Z,25.44
2018-06-08T07:21:18.723Z,25.25
2018-06-08T07:22:18.750Z,25.22
2018-06-08T07:23:18.782Z,25.22
2018-06-08T07:24:18.806Z,25.21
2018-06-08T07:25:18.819Z,25.13
2018-06-08T07:26:18.846Z,25.14
2018-06-08T07:27:18.879Z,24.99
2018-06-08T07:28:18.646Z,25.11
2018-06-08T07:29:18.927Z,24.98
2018-06-08T07:30:18.956Z,25.07
2018-06-08T07:31:18.981Z,25.11
2018-06-08T07:32:19.017Z,25.11
2018-06-08T07:33:18.783Z,25.13
2018-06-08T07:34:18.822Z,25.01
2018-06-08T07:35:19.152Z,24.93
2018-06-08T07:36:18.872Z,25.13
2018-06-08T07:37:19.161Z,25.14
2018-06-08T07:38:18.931Z,25.18
2018-06-08T07:39:18.962Z,25.11
2018-06-08T07:40:19.616Z,25.16
2018-06-08T07:41:19.103Z,25.21
2018-06-08T07:42:19.041Z,25.31
2018-06-08T07:43:19.071Z,25.41
2018-06-08T07:44:19.361Z,25.55
2018-06-08T07:45:19.122Z,25.66
2018-06-08T07:46:19.413Z,25.66
2018-06-08T07:47:19.433Z,25.81
2018-06-08T07:48:19.207Z,25.9
2018-06-08T07:49:19.492Z,25.87
2018-06-08T07:50:19.320Z,25.95
2018-06-08T07:51:19.544Z,26.03
2018-06-08T07:52:19.564Z,25.95
2018-06-08T07:53:19.592Z,25.84
2018-06-08T07:54:19.367Z,25.98
2018-06-08T07:55:19.393Z,25.99
2018-06-08T07:56:19.682Z,25.99
2018-06-08T07:57:19.202Z,26
2018-06-08T07:58:19.490Z,26.09
2018-06-08T07:59:19.512Z,26.18
2018-06-08T08:00:19.792Z,26.05
2018-06-08T08:01:19.859Z,26.13
2018-06-08T08:02:19.593Z,26.16
2018-06-08T08:03:19.623Z,26.15
2018-06-08T08:04:19.906Z,26.23
2018-06-08T08:05:19.726Z,26.21
2018-06-08T08:06:19.963Z,26.33
2018-06-08T08:07:19.983Z,26.13
2018-06-08T08:08:20.012Z,26.03
2018-06-08T08:09:19.912Z,25.98
2018-06-08T08:10:19.865Z,25.93
2018-06-08T08:11:19.839Z,25.8
2018-06-08T08:12:20.118Z,25.81
2018-06-08T08:13:20.144Z,25.83
2018-06-08T08:14:20.173Z,25.83
2018-06-08T08:15:19.959Z,25.88
2018-06-08T08:16:20.240Z,25.98
2018-06-08T08:17:20.258Z,26.03
2018-06-08T08:18:20.291Z,26.33
2018-06-08T08:19:20.530Z,26.36
2018-06-08T08:20:20.350Z,26.47
2018-06-08T08:21:20.367Z,26.53
2018-06-08T08:22:20.137Z,26.58
2018-06-08T08:23:20.418Z,26.37
2018-06-08T08:24:20.192Z,26.25
2018-06-08T08:25:20.283Z,26.45
2018-06-08T08:26:20.501Z,26.55
2018-06-08T08:27:20.534Z,26.7
2018-06-08T08:28:20.309Z,26.84
2018-06-08T08:29:20.612Z,26.88
2018-06-08T08:30:20.627Z,27.07
2018-06-08T08:31:20.394Z,27.02
2018-06-08T08:32:20.670Z,27.02
2018-06-08T08:33:20.453Z,27.03
2018-06-08T08:34:20.847Z,27.11
2018-06-08T08:35:20.762Z,27.22
2018-06-08T08:36:20.534Z,27.21
2018-06-08T08:37:20.821Z,27.27
2018-06-08T08:38:20.848Z,27.39
2018-06-08T08:39:20.367Z,27.27
2018-06-08T08:40:20.963Z,27.44
2018-06-08T08:41:20.435Z,27.45
2018-06-08T08:42:20.970Z,27.4
2018-06-08T08:43:20.743Z,27.39
2018-06-08T08:44:21.028Z,27.44
2018-06-08T08:45:21.105Z,27.4
2018-06-08T08:46:21.095Z,27.6
2018-06-08T08:47:20.863Z,27.67
2018-06-08T08:48:21.139Z,27.6
2018-06-08T08:49:21.165Z,27.68
2018-06-08T08:50:20.994Z,27.7
2018-06-08T08:51:21.225Z,27.78
2018-06-08T08:52:20.999Z,28
2018-06-08T08:53:21.274Z,28.14
2018-06-08T08:54:21.311Z,28.48
2018-06-08T08:55:21.087Z,28.39
2018-06-08T08:56:21.119Z,28.41
2018-06-08T08:57:21.169Z,28.25
2018-06-08T08:58:21.416Z,28.41
2018-06-08T08:59:21.195Z,28.26
2018-06-08T09:00:21.227Z,28.41
2018-06-08T09:01:21.509Z,28.17
2018-06-08T09:02:21.534Z,28.1
2018-06-08T09:03:21.563Z,28.19
2018-06-08T09:04:21.594Z,28.15
2018-06-08T09:05:21.671Z,28.12
2018-06-08T09:06:21.648Z,28.12
2018-06-08T09:07:21.680Z,28.1
2018-06-08T09:08:21.729Z,28.37
2018-06-08T09:09:21.751Z,28.39
2018-06-08T09:10:21.782Z,28.42
2018-06-08T09:11:21.827Z,28.41
2018-06-08T09:12:21.836Z,28.27
2018-06-08T09:13:21.625Z,28.32
2018-06-08T09:14:21.904Z,28.41
2018-06-08T09:15:21.673Z,28.7
2018-06-08T09:16:21.964Z,28.69
2018-06-08T09:17:21.993Z,28.76
2018-06-08T09:18:22.018Z,28.6
2018-06-08T09:19:21.538Z,28.72
2018-06-08T09:20:22.226Z,28.96
2018-06-08T09:21:21.597Z,29.08
2018-06-08T09:22:22.135Z,29.07
2018-06-08T09:23:21.666Z,28.91
2018-06-08T09:24:22.193Z,28.66
2018-06-08T09:25:22.225Z,28.51
2018-06-08T09:26:22.240Z,28.29
2018-06-08T09:27:22.363Z,28.35
2018-06-08T09:28:21.799Z,28.39
2018-06-08T09:29:22.337Z,28.37
2018-06-08T09:30:22.360Z,28.33
2018-06-08T09:31:21.890Z,28.44
2018-06-08T09:32:22.175Z,28.2
2018-06-08T09:33:22.456Z,28.38
2018-06-08T09:34:22.492Z,28.67
2018-06-08T09:35:22.523Z,28.91
2018-06-08T09:36:22.556Z,29.02
2018-06-08T09:37:22.584Z,29.02
2018-06-08T09:38:22.672Z,29.16
2018-06-08T09:39:22.638Z,29.08
2018-06-08T09:40:22.673Z,29.16
2018-06-08T09:41:22.697Z,29.42
2018-06-08T09:42:22.730Z,29.6
2018-06-08T09:43:22.504Z,29.68
2018-06-08T09:44:22.847Z,29.78
2018-06-08T09:45:22.815Z,29.76
2018-06-08T09:46:22.917Z,29.84
2018-06-08T09:47:22.486Z,29.73
2018-06-08T09:48:22.908Z,29.72
2018-06-08T09:49:22.934Z,29.94
2018-06-08T09:50:22.961Z,30.51
2018-06-08T09:51:22.744Z,30.94
2018-06-08T09:52:23.027Z,31.07
2018-06-08T09:53:22.602Z,31.14
2018-06-08T09:54:23.088Z,31.42
2018-06-08T09:55:22.866Z,31.76
2018-06-08T09:56:23.146Z,32.11
2018-06-08T09:57:23.184Z,32.56
2018-06-08T09:58:23.217Z,32.78
2018-06-08T09:59:23.243Z,33.09
2018-06-08T10:00:23.286Z,32.92
2018-06-08T10:01:23.306Z,32.92
2018-06-08T10:02:23.093Z,32.53
2018-06-08T10:03:23.368Z,32.11
2018-06-08T10:04:23.406Z,32.03
2018-06-08T10:05:23.490Z,31.52
2018-06-08T10:06:23.460Z,31.54
2018-06-08T10:07:23.491Z,31.97
2018-06-08T10:08:23.819Z,31.87
2018-06-08T10:09:23.558Z,32.12
2018-06-08T10:10:23.083Z,32.12
2018-06-08T10:11:23.442Z,32.37
2018-06-08T10:12:23.651Z,32.38
2018-06-08T10:13:23.789Z,32.4
2018-06-08T10:14:23.471Z,32.83
2018-06-08T10:15:23.757Z,33.22
2018-06-08T10:16:23.795Z,33.39
2018-06-08T10:17:23.566Z,33.58
2018-06-08T10:18:23.601Z,34.06
2018-06-08T10:19:23.900Z,34.47
2018-06-08T10:20:23.709Z,34.43
2018-06-08T10:21:23.956Z,34.27
2018-06-08T10:22:23.988Z,34.11
2018-06-08T10:23:23.801Z,34.16
2018-06-08T10:24:24.038Z,34.39
2018-06-08T10:25:24.091Z,34.57
2018-06-08T10:26:23.604Z,34.51
2018-06-08T10:27:24.153Z,34.51
2018-06-08T10:28:24.350Z,34.39
2018-06-08T10:29:24.215Z,34.42
2018-06-08T10:30:24.253Z,34.58
2018-06-08T10:31:24.287Z,34.92
2018-06-08T10:32:24.065Z,35.1
2018-06-08T10:33:24.343Z,35.3
2018-06-08T10:34:24.389Z,35.66
2018-06-08T10:35:24.161Z,35.98
2018-06-08T10:36:24.452Z,36.24
2018-06-08T10:37:24.234Z,36.42
2018-06-08T10:38:24.567Z,36.74
2018-06-08T10:39:24.042Z,36.49
2018-06-08T10:40:24.583Z,36.39
2018-06-08T10:41:24.617Z,36.4
2018-06-08T10:42:24.648Z,36.46
2018-06-08T10:43:24.474Z,36.52
2018-06-08T10:44:24.717Z,36.74
2018-06-08T10:45:24.750Z,36.57
2018-06-08T10:46:24.539Z,36.33
2018-06-08T10:47:24.318Z,36.43
2018-06-08T10:48:24.865Z,36.43
2018-06-08T10:49:24.640Z,36.68
2018-06-08T10:50:24.928Z,36.73
2018-06-08T10:51:24.947Z,37.03
2018-06-08T10:52:24.727Z,37.51
2018-06-08T10:53:24.762Z,37.56
2018-06-08T10:54:25.052Z,37.06
2018-06-08T10:55:25.103Z,36.27
2018-06-08T10:56:24.884Z,36.16
2018-06-08T10:57:25.181Z,35.98
2018-06-08T10:58:25.200Z,35.71
2018-06-08T10:59:24.987Z,36.02
2018-06-08T11:00:25.274Z,36.2
2018-06-08T11:01:25.299Z,36.21
2018-06-08T11:02:24.882Z,35.64
2018-06-08T11:03:25.118Z,35.85
2018-06-08T11:04:25.155Z,36.07
2018-06-08T11:05:25.438Z,36.33
2018-06-08T11:06:25.472Z,36.3
2018-06-08T11:07:25.511Z,36.04
2018-06-08T11:08:25.543Z,36.65
2018-06-08T11:09:25.575Z,36.93
2018-06-08T11:10:25.361Z,37.26
2018-06-08T11:11:25.398Z,37.53
2018-06-08T11:12:25.685Z,37.72
2018-06-08T11:13:25.723Z,37.63
2018-06-08T11:14:25.755Z,37.84
2018-06-08T11:15:25.799Z,38.02
2018-06-08T11:16:25.318Z,37.96
2018-06-08T11:17:25.909Z,38.36
2018-06-08T11:18:25.640Z,38.83
2018-06-08T11:19:25.933Z,39.17
2018-06-08T11:20:25.973Z,39.36
2018-06-08T11:21:26.032Z,39.14
2018-06-08T11:22:26.034Z,39.36
2018-06-08T11:23:25.565Z,39.6
2018-06-08T11:24:25.852Z,39.6
2018-06-08T11:25:26.149Z,39.63
2018-06-08T11:26:26.184Z,39.34
2018-06-08T11:27:25.963Z,39.58
2018-06-08T11:28:25.997Z,39.99
2018-06-08T11:29:26.280Z,39.26
2018-06-08T11:30:26.350Z,38.99
2018-06-08T11:31:26.109Z,39.03
2018-06-08T11:32:26.192Z,39.37
2018-06-08T11:33:26.175Z,39.74
2018-06-08T11:34:26.465Z,39.77
2018-06-08T11:35:25.993Z,39.92
2018-06-08T11:36:26.287Z,40.5
2018-06-08T11:37:26.604Z,40.7
2018-06-08T11:38:26.356Z,41.1
2018-06-08T11:39:26.453Z,41.57
2018-06-08T11:40:26.685Z,41.8
2018-06-08T11:41:26.767Z,41.91
2018-06-08T11:42:26.750Z,41.74
2018-06-08T11:43:26.539Z,41.55
2018-06-08T11:44:26.827Z,41.12
2018-06-08T11:45:26.618Z,40.85
2018-06-08T11:46:26.899Z,40.5
2018-06-08T11:47:26.937Z,39.77
2018-06-08T11:48:26.976Z,39.34
2018-06-08T11:49:27.013Z,39.15
2018-06-08T11:50:26.794Z,39.19
2018-06-08T11:51:27.083Z,39.58
2018-06-08T11:52:27.170Z,39.96
2018-06-08T11:53:27.162Z,40.73
2018-06-08T11:54:26.937Z,41.15
2018-06-08T11:55:26.721Z,41.38
2018-06-08T11:56:27.270Z,40.81
2018-06-08T11:57:27.457Z,41.22
2018-06-08T11:58:27.089Z,41.15
2018-06-08T11:59:27.392Z,40.66
2018-06-08T12:00:27.412Z,40.75
2018-06-08T12:01:27.456Z,41.04
2018-06-08T12:02:27.545Z,41.85
2018-06-08T12:03:27.504Z,42.28
2018-06-08T12:04:27.289Z,42.39
2018-06-08T12:05:27.582Z,42.19
2018-06-08T12:06:27.368Z,41.5
2018-06-08T12:07:27.650Z,40.92
2018-06-08T12:08:27.438Z,40.65
2018-06-08T12:09:27.734Z,40.4
2018-06-08T12:10:27.518Z,40.72
2018-06-08T12:11:27.547Z,40.97
2018-06-08T12:12:27.649Z,40.18
2018-06-08T12:13:27.890Z,39.6
2018-06-08T12:14:27.673Z,39.77
2018-06-08T12:15:27.706Z,39.99
2018-06-08T12:16:27.744Z,39.71
2018-06-08T12:17:27.779Z,39.55
2018-06-08T12:18:28.068Z,39.33
2018-06-08T12:19:27.853Z,38.91
2018-06-08T12:20:27.897Z,39
2018-06-08T12:21:28.173Z,39.58
2018-06-08T12:22:28.209Z,40
2018-06-08T12:23:27.989Z,40.58
2018-06-08T12:24:28.028Z,40.95
2018-06-08T12:25:28.319Z,41.37
2018-06-08T12:26:28.103Z,41.22
2018-06-08T12:27:27.936Z,40.49
2018-06-08T12:28:28.423Z,40.81
2018-06-08T12:29:28.441Z,41.15
2018-06-08T12:30:28.483Z,41.4
2018-06-08T12:31:28.508Z,41.52
2018-06-08T12:32:28.550Z,41.72
2018-06-08T12:33:28.584Z,41.66
2018-06-08T12:34:28.617Z,41.56
2018-06-08T12:35:28.656Z,41.15
2018-06-08T12:36:28.718Z,40.54
2018-06-08T12:37:28.244Z,41.06
2018-06-08T12:38:28.531Z,41.6
2018-06-08T12:39:28.835Z,41.56
2018-06-08T12:40:28.606Z,41.47
2018-06-08T12:41:28.896Z,41.68
2018-06-08T12:42:28.728Z,41.78
2018-06-08T12:43:28.740Z,41.99
2018-06-08T12:44:29.005Z,41.72
2018-06-08T12:45:28.786Z,41.78
2018-06-08T12:46:28.827Z,41.88
2018-06-08T12:47:28.861Z,42.24
2018-06-08T12:48:29.147Z,42.97
2018-06-08T12:49:28.931Z,42.89
2018-06-08T12:50:29.227Z,43.1
2018-06-08T12:51:29.264Z,43.49
2018-06-08T12:52:29.295Z,43.36
2018-06-08T12:53:29.090Z,42.88
2018-06-08T12:54:29.117Z,42.28
2018-06-08T12:55:29.403Z,42.85
2018-06-08T12:56:29.192Z,43.49